createdAt,value
2023-12-30T00:02:44.354Z,98967.84
2023-12-30T00:07:46.745Z,98961.53
2023-12-30T00:12:48.696Z,98967.53
2023-12-30T00:17:50.730Z,98977.13
2023-12-30T00:22:53.011Z,98974.34
2023-12-30T00:27:54.970Z,98966.03
2023-12-30T00:32:57.766Z,98978.97
2023-12-30T00:37:59.922Z,98972.97
2023-12-30T00:43:03.296Z,98977.84
2023-12-30T00:48:06.654Z,98982.25
2023-12-30T00:53:08.676Z,98972.16
2023-12-30T00:58:14.400Z,98977.13
2023-12-30T01:03:16.461Z,98981.06
2023-12-30T01:08:20.256Z,98991.38
2023-12-30T01:13:22.208Z,98991.03
2023-12-30T01:18:26.490Z,98990.81
2023-12-30T01:23:28.713Z,98989.72
2023-12-30T01:28:32.355Z,98983.34
2023-12-30T01:33:35.532Z,98991.22
2023-12-30T01:38:37.502Z,98965.44
2023-12-30T01:43:39.980Z,98978.44
2023-12-30T01:48:42.458Z,98994.63
2023-12-30T01:53:47.612Z,98990.78
2023-12-30T01:58:52.398Z,98988.94
2023-12-30T02:03:56.050Z,98979.09
2023-12-30T02:08:58.086Z,98985.69
2023-12-30T02:14:00.015Z,98993.63
2023-12-30T02:19:02.163Z,99001.06
2023-12-30T02:24:04.339Z,98987.06
2023-12-30T02:29:06.776Z,98977.56
2023-12-30T02:34:08.803Z,98984.13
2023-12-30T02:39:11.281Z,98979.19
2023-12-30T02:44:19.822Z,98973.44
2023-12-30T02:49:22.067Z,98977.31
2023-12-30T02:54:24.360Z,98969.63
2023-12-30T02:59:26.224Z,98984.75
2023-12-30T03:04:28.258Z,98983.91
2023-12-30T03:09:30.226Z,98987.19
2023-12-30T03:14:32.094Z,98972.44
2023-12-30T03:19:34.548Z,98988.31
2023-12-30T03:24:36.679Z,98978.75
2023-12-30T03:29:38.631Z,98977.66
2023-12-30T03:34:41.466Z,98971.41
2023-12-30T03:39:43.509Z,98973.56
2023-12-30T03:44:45.469Z,98971.09
2023-12-30T03:49:47.893Z,98966.19
2023-12-30T03:54:50.022Z,98973.56
2023-12-30T03:59:51.933Z,98988.63
2023-12-30T04:04:53.975Z,98979.00
2023-12-30T04:09:55.979Z,98985.88
2023-12-30T04:14:58.240Z,98990.19
2023-12-30T04:20:00.349Z,98987.75
2023-12-30T04:25:04.108Z,98989.66
2023-12-30T04:30:07.368Z,98998.16
2023-12-30T04:35:09.658Z,98997.91
2023-12-30T04:40:12.027Z,99002.00
2023-12-30T04:45:15.334Z,99018.44
2023-12-30T04:50:18.281Z,99031.56
2023-12-30T04:55:20.321Z,99024.50
2023-12-30T05:00:24.056Z,99046.97
2023-12-30T05:05:26.365Z,99043.63
2023-12-30T05:10:28.341Z,99052.91
2023-12-30T05:15:30.484Z,99055.97
2023-12-30T05:20:33.591Z,99065.81
2023-12-30T05:25:35.638Z,99067.44
2023-12-30T05:30:37.594Z,99073.19
2023-12-30T05:35:41.351Z,99068.50
2023-12-30T05:40:43.808Z,99070.59
2023-12-30T05:45:47.875Z,99060.16
2023-12-30T05:50:49.756Z,99069.94
2023-12-30T05:55:53.953Z,99075.69
2023-12-30T06:00:57.412Z,99076.09
2023-12-30T06:05:59.471Z,99084.03
2023-12-30T06:11:01.392Z,99096.81
2023-12-30T06:16:03.507Z,99100.00
2023-12-30T06:21:06.297Z,99101.97
2023-12-30T06:26:08.242Z,99090.66
2023-12-30T06:31:10.256Z,99087.63
2023-12-30T06:36:24.402Z,99098.84
2023-12-30T06:41:26.365Z,99104.31
2023-12-30T06:46:28.300Z,99114.81
2023-12-30T06:51:30.400Z,99111.38
2023-12-30T06:56:32.555Z,99136.28
2023-12-30T07:01:38.823Z,99142.59
2023-12-30T07:06:40.850Z,99140.88
2023-12-30T07:11:42.810Z,99141.50
2023-12-30T07:16:50.070Z,99158.13
2023-12-30T07:21:54.513Z,99165.13
2023-12-30T07:26:57.953Z,99166.88
2023-12-30T07:32:01.374Z,99171.75
2023-12-30T07:37:03.549Z,99181.56
2023-12-30T07:42:05.760Z,99190.81
2023-12-30T07:47:08.993Z,99191.66
2023-12-30T07:52:10.922Z,99197.88
2023-12-30T07:57:13.034Z,99202.00
2023-12-30T08:02:15.167Z,99202.00
2023-12-30T08:07:17.926Z,99206.44
2023-12-30T08:12:19.993Z,99209.41
2023-12-30T08:17:23.197Z,99203.78
2023-12-30T08:22:25.257Z,99209.63
2023-12-30T08:27:27.280Z,99210.03
2023-12-30T08:32:29.606Z,99218.13
2023-12-30T08:37:31.577Z,99223.75
2023-12-30T08:42:36.076Z,99230.41
2023-12-30T08:47:38.290Z,99221.66
2023-12-30T08:52:40.626Z,99219.81
2023-12-30T08:57:44.395Z,99224.69
2023-12-30T09:02:50.095Z,99236.03
2023-12-30T09:07:52.676Z,99234.06
2023-12-30T09:12:54.690Z,99226.91
2023-12-30T09:17:58.530Z,99229.84
2023-12-30T09:23:00.984Z,99246.63
2023-12-30T09:28:03.217Z,99237.41
2023-12-30T09:33:07.431Z,99228.41
2023-12-30T09:38:11.374Z,99226.91
2023-12-30T09:43:15.903Z,99221.84
2023-12-30T09:48:22.062Z,99219.63
2023-12-30T09:53:26.190Z,99218.72
2023-12-30T09:58:28.254Z,99205.88
2023-12-30T10:03:30.936Z,99212.75
2023-12-30T10:08:33.395Z,99213.66
2023-12-30T10:13:39.863Z,99221.50
2023-12-30T10:18:42.069Z,99222.88
2023-12-30T10:23:49.264Z,99233.34
2023-12-30T10:28:51.301Z,99233.63
2023-12-30T10:33:54.699Z,99238.00
2023-12-30T10:38:56.957Z,99234.19
2023-12-30T10:43:59.266Z,99242.63
2023-12-30T10:49:05.715Z,99240.88
2023-12-30T10:54:09.141Z,99240.81
2023-12-30T10:59:13.750Z,99231.56
2023-12-30T11:04:16.441Z,99236.41
2023-12-30T11:09:20.774Z,99232.88
2023-12-30T11:14:23.331Z,99221.50
2023-12-30T11:19:33.095Z,99221.69
2023-12-30T11:24:35.590Z,99213.31
2023-12-30T11:29:37.711Z,99204.69
2023-12-30T11:34:39.868Z,99189.34
2023-12-30T11:39:45.150Z,99196.66
2023-12-30T11:44:47.855Z,99196.06
2023-12-30T11:49:49.762Z,99205.81
2023-12-30T11:54:51.800Z,99211.22
2023-12-30T11:59:53.802Z,99208.94
2023-12-30T12:04:55.754Z,99228.56
2023-12-30T12:09:57.849Z,99211.22
2023-12-30T12:14:59.794Z,99201.44
2023-12-30T12:20:02.775Z,99189.66
2023-12-30T12:25:06.213Z,99195.13
2023-12-30T12:30:10.469Z,99179.72
2023-12-30T12:35:13.449Z,99185.44
2023-12-30T12:40:15.727Z,99191.38
2023-12-30T12:45:17.796Z,99185.72
2023-12-30T12:50:19.993Z,99197.53
2023-12-30T12:55:21.951Z,99189.09
2023-12-30T13:00:24.303Z,99190.19
2023-12-30T13:05:26.284Z,99184.59
2023-12-30T13:10:34.091Z,99182.28
2023-12-30T13:15:36.359Z,99178.47
2023-12-30T13:20:40.560Z,99169.91
2023-12-30T13:25:44.330Z,99176.41
2023-12-30T13:30:47.200Z,99162.72
2023-12-30T13:35:51.053Z,99164.44
2023-12-30T13:40:59.824Z,99156.88
2023-12-30T13:46:21.703Z,99155.88
2023-12-30T13:51:23.602Z,99161.00
2023-12-30T13:56:26.413Z,99158.25
2023-12-30T14:01:28.745Z,99162.50
2023-12-30T14:06:33.479Z,99160.34
2023-12-30T14:11:45.812Z,99161.84
2023-12-30T14:23:48.128Z,99158.25
2023-12-30T14:28:50.215Z,99156.00
2023-12-30T14:33:52.330Z,99160.44
2023-12-30T14:38:54.424Z,99147.25
2023-12-30T14:43:56.360Z,99150.84
2023-12-30T14:48:59.440Z,99141.72
2023-12-30T14:54:01.400Z,99142.03
2023-12-30T14:59:03.563Z,99151.66
2023-12-30T15:04:05.702Z,99145.28
2023-12-30T15:09:10.793Z,99155.19
2023-12-30T15:14:12.811Z,99145.34
2023-12-30T15:19:14.767Z,99147.91
2023-12-30T15:24:17.858Z,99149.44
2023-12-30T15:29:19.830Z,99162.78
2023-12-30T15:34:22.356Z,99156.56
2023-12-30T15:39:24.487Z,99160.94
2023-12-30T15:44:26.359Z,99165.34
2023-12-30T15:49:28.435Z,99164.31
2023-12-30T15:54:30.461Z,99168.91
2023-12-30T15:59:32.413Z,99173.41
2023-12-30T16:04:34.352Z,99170.75
2023-12-30T16:09:36.547Z,99166.56
2023-12-30T16:14:38.564Z,99177.38
2023-12-30T16:19:41.380Z,99174.00
2023-12-30T16:24:43.413Z,99178.84
2023-12-30T16:29:47.356Z,99185.06
2023-12-30T16:34:49.590Z,99188.81
2023-12-30T16:39:52.765Z,99192.13
2023-12-30T16:44:55.028Z,99193.72
2023-12-30T16:49:57.953Z,99190.00
2023-12-30T16:55:00.371Z,99182.78
2023-12-30T17:00:02.555Z,99183.19
2023-12-30T17:05:09.104Z,99186.56
2023-12-30T17:10:11.703Z,99195.81
2023-12-30T17:15:15.486Z,99200.44
2023-12-30T17:20:17.457Z,99208.53
2023-12-30T17:25:19.480Z,99214.03
2023-12-30T17:30:21.938Z,99217.91
2023-12-30T17:35:25.997Z,99229.28
2023-12-30T17:40:27.891Z,99233.09
2023-12-30T17:45:30.543Z,99237.19
2023-12-30T17:50:32.449Z,99236.72
2023-12-30T17:55:34.550Z,99238.00
2023-12-30T18:00:36.884Z,99235.69
2023-12-30T18:05:38.990Z,99243.50
2023-12-30T18:10:41.047Z,99242.63
2023-12-30T18:15:43.025Z,99249.03
2023-12-30T18:20:44.933Z,99238.97
2023-12-30T18:25:46.900Z,99247.75
2023-12-30T18:30:48.941Z,99257.16
2023-12-30T18:35:50.883Z,99251.13
2023-12-30T18:40:52.811Z,99257.50
2023-12-30T18:45:54.825Z,99258.59
2023-12-30T18:50:56.799Z,99266.13
2023-12-30T18:56:03.998Z,99262.59
2023-12-30T19:01:06.079Z,99264.91
2023-12-30T19:06:08.136Z,99265.31
2023-12-30T19:11:10.710Z,99267.81
2023-12-30T19:16:12.676Z,99261.28
2023-12-30T19:21:14.817Z,99261.81
2023-12-30T19:26:16.761Z,99257.47
2023-12-30T19:31:18.713Z,99259.94
2023-12-30T19:36:20.760Z,99267.97
2023-12-30T19:41:23.114Z,99269.59
2023-12-30T19:46:27.596Z,99259.72
2023-12-30T19:51:29.644Z,99248.19
2023-12-30T19:56:31.791Z,99253.47
2023-12-30T20:01:34.097Z,99258.69
2023-12-30T20:06:38.192Z,99256.25
2023-12-30T20:11:40.791Z,99245.25
2023-12-30T20:16:43.181Z,99243.88
2023-12-30T20:21:45.152Z,99241.72
2023-12-30T20:26:47.084Z,99232.69
2023-12-30T20:31:49.040Z,99221.13
2023-12-30T20:36:51.545Z,99235.13
2023-12-30T20:41:53.560Z,99226.66
2023-12-30T20:46:55.715Z,99223.06
2023-12-30T20:51:57.720Z,99219.25
2023-12-30T20:56:59.633Z,99221.19
2023-12-30T21:02:02.134Z,99220.31
2023-12-30T21:07:05.077Z,99207.19
2023-12-30T21:12:07.344Z,99206.91
2023-12-30T21:17:09.261Z,99198.97
2023-12-30T21:22:11.309Z,99200.09
2023-12-30T21:27:13.946Z,99199.25
2023-12-30T21:32:16.063Z,99207.16
2023-12-30T21:37:18.201Z,99204.16
2023-12-30T21:42:20.119Z,99197.84
2023-12-30T21:47:22.602Z,99206.34
2023-12-30T21:52:24.640Z,99202.78
2023-12-30T21:57:26.813Z,99198.41
2023-12-30T22:02:28.826Z,99198.94
2023-12-30T22:07:31.028Z,99203.88
2023-12-30T22:12:33.554Z,99194.81
2023-12-30T22:17:35.588Z,99189.84
2023-12-30T22:22:37.593Z,99172.38
2023-12-30T22:27:39.545Z,99165.50
2023-12-30T22:32:42.021Z,99173.72
2023-12-30T22:37:44.201Z,99176.75
2023-12-30T22:42:46.183Z,99177.28
2023-12-30T22:47:48.382Z,99168.78
2023-12-30T22:52:50.688Z,99158.06
2023-12-30T22:57:53.588Z,99147.63
2023-12-30T23:02:56.314Z,99141.63
2023-12-30T23:07:58.262Z,99142.72
2023-12-30T23:13:01.380Z,99150.09
2023-12-30T23:18:03.804Z,99134.78
2023-12-30T23:23:05.977Z,99121.63
2023-12-30T23:28:08.196Z,99116.38
2023-12-30T23:33:10.172Z,99108.72
2023-12-30T23:38:12.076Z,99097.75
2023-12-30T23:43:14.094Z,99090.06
2023-12-30T23:48:16.030Z,99090.84
2023-12-30T23:53:17.915Z,99079.03
2023-12-30T23:58:19.833Z,99080.72
